CDT,Max TemperatureF,Mean TemperatureF,Min TemperatureF,Max Dew PointF,MeanDew PointF,Min DewpointF,Max Humidity, Mean Humidity, Min Humidity, Max Sea Level PressureIn, Mean Sea Level PressureIn, Min Sea Level PressureIn, Max VisibilityMiles, Mean VisibilityMiles, Min VisibilityMiles, Max Wind SpeedMPH, Mean Wind SpeedMPH, Max Gust SpeedMPH,PrecipitationIn, CloudCover, Events, WindDirDegrees
2012-4-1,57,46,35,43,38,34,100,77,47,29.82,29.76,29.72,10,7,3,14,7,17,0.00,3,,54
2012-4-2,55,48,41,36,33,30,81,58,41,29.97,29.91,29.83,10,10,10,20,13,24,0.00,1,,91
2012-4-3,57,50,44,41,38,34,81,64,51,30.02,29.92,29.82,10,10,10,17,9,24,0.00,4,Rain-Thunderstorm,38
2012-4-4,59,46,32,37,30,23,100,59,27,30.04,30.01,29.95,10,10,7,14,6,20,0.00,0,,46
2012-4-5,48,40,32,30,27,19,93,62,37,30.16,30.10,30.03,10,10,10,16,10,22,0.00,1,,34
2012-4-6,53,42,32,32,24,19,100,54,26,30.34,30.27,30.22,10,10,10,9,6,,0.00,0,,81
2012-4-7,60,46,32,46,28,10,100,48,25,30.27,30.18,30.07,10,10,2,17,7,24,0.02,2,Rain,176
2012-4-8,60,48,35,43,27,14,100,54,16,30.24,30.15,30.03,10,10,10,21,9,36,0.00,2,,254
2012-4-9,53,42,32,32,19,9,87,45,16,30.05,29.99,29.94,10,10,10,22,9,33,0.00,1,,280
2012-4-10,41,36,30,18,14,9,55,44,31,30.16,30.09,30.04,10,10,10,16,10,25,0.00,5,,311
2012-4-11,51,40,28,30,22,18,70,52,30,30.30,30.24,30.17,10,10,10,12,6,16,0.00,1,,340
2012-4-12,59,44,30,28,25,18,81,52,20,30.26,30.21,30.14,10,10,4,12,5,17,0.00,1,,176
2012-4-13,59,47,35,36,27,21,75,44,23,30.19,30.10,29.96,10,10,10,22,11,29,0.00,3,,143
2012-4-14,71,60,48,54,44,32,93,63,25,29.97,29.88,29.76,10,10,4,20,11,26,0.00,4,,185
2012-4-15,71,64,57,63,59,54,100,87,64,29.79,29.61,29.45,10,8,1,32,12,48,0.75,6,Rain-Thunderstorm,153
2012-4-16,64,50,35,59,38,28,83,67,53,30.20,29.74,29.40,10,10,5,31,21,41,0.09,6,Rain,240
2012-4-17,51,42,32,36,30,25,100,67,38,30.39,30.31,30.20,10,10,10,14,3,17,0.00,1,,124
2012-4-18,64,52,39,45,39,28,87,59,45,30.25,30.02,29.90,10,10,7,26,14,32,0.00,4,,190
2012-4-19,53,45,37,41,38,36,100,79,54,30.04,29.94,29.81,10,10,1,17,7,26,0.54,5,Rain-Thunderstorm,35
2012-4-20,44,40,33,37,34,28,100,84,53,30.07,29.90,29.74,10,9,2,21,13,28,0.23,6,Rain,7
2012-4-21,51,42,32,30,26,21,87,59,37,30.09,30.05,30.00,10,10,10,12,5,,0.00,1,,34
2012-4-22,51,42,33,30,24,16,81,52,24,30.15,30.11,30.02,10,10,10,16,7,25,0.00,1,,27
2012-4-23,57,45,33,28,19,9,75,40,15,30.12,29.99,29.83,10,10,10,17,6,23,0.00,0,,333
2012-4-24,62,48,35,32,22,12,61,36,17,29.82,29.73,29.65,10,10,10,9,3,22,0.00,0,,287
2012-4-25,51,46,42,45,37,28,93,70,46,29.76,29.71,29.67,10,10,7,13,6,16,0.04,6,Rain,83
2012-4-26,51,43,35,43,32,18,100,62,26,30.17,29.95,29.70,10,8,3,22,9,31,0.00,3,,354
2012-4-27,51,40,30,30,20,10,100,50,19,30.29,30.22,30.16,10,10,10,16,6,18,0.00,1,,103
2012-4-28,41,38,35,41,32,16,100,77,36,30.27,30.18,30.06,10,9,5,17,10,25,0.13,7,Rain,70
2012-4-29,53,43,33,43,27,10,100,59,18,30.30,30.22,30.07,10,10,4,16,8,23,0.25,2,Rain,77
2012-4-30,53,48,42,46,43,39,100,83,71,30.07,29.96,29.92,10,10,4,8,5,,0.01,8,Rain,356